sensor_id;sensor_type;location;lat;lon;timestamp;temperature;humidity
65195;DHT22;64548;-32.886;-68.826;2022-11-06T00:02:25;27.30;27.70
65195;DHT22;64548;-32.886;-68.826;2022-11-06T00:04:53;27.20;27.30
65195;DHT22;64548;-32.886;-68.826;2022-11-06T00:07:45;27.20;27.70
65195;DHT22;64548;-32.886;-68.826;2022-11-06T00:10:18;27.10;28.40
65195;DHT22;64548;-32.886;-68.826;2022-11-06T00:12:46;27.00;27.80
65195;DHT22;64548;-32.886;-68.826;2022-11-06T00:15:15;27.00;27.80
65195;DHT22;64548;-32.886;-68.826;2022-11-06T00:17:43;27.00;28.20
65195;DHT22;64548;-32.886;-68.826;2022-11-06T00:20:11;26.40;28.00
65195;DHT22;64548;-32.886;-68.826;2022-11-06T00:22:39;26.80;28.20
65195;DHT22;64548;-32.886;-68.826;2022-11-06T00:25:11;26.80;28.40
65195;DHT22;64548;-32.886;-68.826;2022-11-06T00:27:39;26.80;28.40
65195;DHT22;64548;-32.886;-68.826;2022-11-06T00:30:10;26.70;28.40
65195;DHT22;64548;-32.886;-68.826;2022-11-06T00:32:39;26.70;28.50
65195;DHT22;64548;-32.886;-68.826;2022-11-06T00:35:07;26.60;28.50
65195;DHT22;64548;-32.886;-68.826;2022-11-06T00:37:35;26.60;28.30
65195;DHT22;64548;-32.886;-68.826;2022-11-06T00:42:32;26.70;27.50
65195;DHT22;64548;-32.886;-68.826;2022-11-06T00:45:01;26.60;27.70
65195;DHT22;64548;-32.886;-68.826;2022-11-06T00:47:30;26.60;28.90
65195;DHT22;64548;-32.886;-68.826;2022-11-06T00:52:28;26.20;28.20
65195;DHT22;64548;-32.886;-68.826;2022-11-06T00:54:57;26.10;28.10
65195;DHT22;64548;-32.886;-68.826;2022-11-06T00:57:25;26.10;27.20
65195;DHT22;64548;-32.886;-68.826;2022-11-06T00:59:53;26.10;27.10
65195;DHT22;64548;-32.886;-68.826;2022-11-06T01:02:21;26.20;27.00
65195;DHT22;64548;-32.886;-68.826;2022-11-06T01:04:49;25.30;28.80
65195;DHT22;64548;-32.886;-68.826;2022-11-06T01:12:13;26.10;27.70
65195;DHT22;64548;-32.886;-68.826;2022-11-06T01:14:45;25.90;26.80
65195;DHT22;64548;-32.886;-68.826;2022-11-06T01:17:14;25.90;27.10
65195;DHT22;64548;-32.886;-68.826;2022-11-06T01:22:10;25.90;27.20
65195;DHT22;64548;-32.886;-68.826;2022-11-06T01:32:06;26.10;26.50
65195;DHT22;64548;-32.886;-68.826;2022-11-06T01:34:34;25.90;26.30
65195;DHT22;64548;-32.886;-68.826;2022-11-06T01:37:02;26.10;26.80
65195;DHT22;64548;-32.886;-68.826;2022-11-06T01:49:50;25.90;27.80
65195;DHT22;64548;-32.886;-68.826;2022-11-06T01:52:21;25.80;27.60
65195;DHT22;64548;-32.886;-68.826;2022-11-06T01:57:21;25.80;27.70
65195;DHT22;64548;-32.886;-68.826;2022-11-06T01:59:51;25.70;27.50
65195;DHT22;64548;-32.886;-68.826;2022-11-06T02:02:20;25.50;27.60
65195;DHT22;64548;-32.886;-68.826;2022-11-06T02:07:19;25.50;27.90
65195;DHT22;64548;-32.886;-68.826;2022-11-06T02:15:20;25.40;27.90
65195;DHT22;64548;-32.886;-68.826;2022-11-06T02:24:38;25.10;27.80
65195;DHT22;64548;-32.886;-68.826;2022-11-06T02:32:37;25.00;28.80
65195;DHT22;64548;-32.886;-68.826;2022-11-06T02:40:25;25.00;29.40
65195;DHT22;64548;-32.886;-68.826;2022-11-06T02:42:58;24.90;29.70
65195;DHT22;64548;-32.886;-68.826;2022-11-06T02:45:34;24.80;29.60
65195;DHT22;64548;-32.886;-68.826;2022-11-06T02:50:38;24.80;28.80
65195;DHT22;64548;-32.886;-68.826;2022-11-06T02:53:09;24.70;29.10
65195;DHT22;64548;-32.886;-68.826;2022-11-06T02:55:44;24.70;29.80
65195;DHT22;64548;-32.886;-68.826;2022-11-06T02:58:22;24.50;28.50
65195;DHT22;64548;-32.886;-68.826;2022-11-06T03:01:02;24.60;28.70
65195;DHT22;64548;-32.886;-68.826;2022-11-06T03:03:34;24.70;29.50
65195;DHT22;64548;-32.886;-68.826;2022-11-06T03:06:09;24.60;29.40
65195;DHT22;64548;-32.886;-68.826;2022-11-06T03:08:51;24.80;29.70
65195;DHT22;64548;-32.886;-68.826;2022-11-06T03:11:24;24.40;29.40
65195;DHT22;64548;-32.886;-68.826;2022-11-06T03:26:46;24.40;28.40
65195;DHT22;64548;-32.886;-68.826;2022-11-06T03:34:51;24.60;28.90
65195;DHT22;64548;-32.886;-68.826;2022-11-06T03:37:32;24.30;28.70
65195;DHT22;64548;-32.886;-68.826;2022-11-06T03:40:08;24.30;29.20
65195;DHT22;64548;-32.886;-68.826;2022-11-06T03:42:41;24.30;29.70
65195;DHT22;64548;-32.886;-68.826;2022-11-06T03:45:15;24.30;30.00
65195;DHT22;64548;-32.886;-68.826;2022-11-06T03:50:34;24.20;30.00
65195;DHT22;64548;-32.886;-68.826;2022-11-06T03:53:56;23.70;32.00
65195;DHT22;64548;-32.886;-68.826;2022-11-06T03:58:41;23.80;29.90
65195;DHT22;64548;-32.886;-68.826;2022-11-06T04:01:15;23.70;29.90
65195;DHT22;64548;-32.886;-68.826;2022-11-06T04:11:54;24.00;34.90
65195;DHT22;64548;-32.886;-68.826;2022-11-06T04:14:46;23.80;35.10
65195;DHT22;64548;-32.886;-68.826;2022-11-06T04:17:17;24.70;36.40
65195;DHT22;64548;-32.886;-68.826;2022-11-06T04:30:35;23.20;35.90
65195;DHT22;64548;-32.886;-68.826;2022-11-06T04:43:20;23.60;35.60
65195;DHT22;64548;-32.886;-68.826;2022-11-06T04:45:54;23.20;33.60
65195;DHT22;64548;-32.886;-68.826;2022-11-06T04:48:25;22.00;33.10
65195;DHT22;64548;-32.886;-68.826;2022-11-06T07:06:54;22.50;31.90
65195;DHT22;64548;-32.886;-68.826;2022-11-06T07:24:12;22.20;31.20
65195;DHT22;64548;-32.886;-68.826;2022-11-06T09:23:08;20.40;29.60
65195;DHT22;64548;-32.886;-68.826;2022-11-06T09:51:35;21.20;29.20
65195;DHT22;64548;-32.886;-68.826;2022-11-06T09:59:12;20.90;28.30
65195;DHT22;64548;-32.886;-68.826;2022-11-06T10:01:55;21.10;28.90
65195;DHT22;64548;-32.886;-68.826;2022-11-06T10:07:26;21.00;29.00
65195;DHT22;64548;-32.886;-68.826;2022-11-06T10:09:55;21.00;29.00
65195;DHT22;64548;-32.886;-68.826;2022-11-06T10:25:00;20.70;28.70
65195;DHT22;64548;-32.886;-68.826;2022-11-06T10:27:41;20.60;29.10
65195;DHT22;64548;-32.886;-68.826;2022-11-06T10:30:18;20.80;29.40
65195;DHT22;64548;-32.886;-68.826;2022-11-06T10:38:20;20.90;30.40
65195;DHT22;64548;-32.886;-68.826;2022-11-06T10:40:49;21.10;30.70
65195;DHT22;64548;-32.886;-68.826;2022-11-06T10:48:58;21.20;30.30
65195;DHT22;64548;-32.886;-68.826;2022-11-06T10:54:18;21.20;29.80
65195;DHT22;64548;-32.886;-68.826;2022-11-06T10:59:28;21.10;29.90
65195;DHT22;64548;-32.886;-68.826;2022-11-06T11:01:56;21.40;30.50
65195;DHT22;64548;-32.886;-68.826;2022-11-06T11:04:24;21.50;30.50
65195;DHT22;64548;-32.886;-68.826;2022-11-06T11:06:52;21.60;30.40
65195;DHT22;64548;-32.886;-68.826;2022-11-06T11:09:32;21.70;31.10
65195;DHT22;64548;-32.886;-68.826;2022-11-06T11:12:00;21.70;31.10
65195;DHT22;64548;-32.886;-68.826;2022-11-06T11:14:30;20.00;28.20
65195;DHT22;64548;-32.886;-68.826;2022-11-06T11:17:00;21.70;29.90
65195;DHT22;64548;-32.886;-68.826;2022-11-06T11:19:37;22.10;30.10
65195;DHT22;64548;-32.886;-68.826;2022-11-06T11:22:19;22.10;29.70
65195;DHT22;64548;-32.886;-68.826;2022-11-06T11:25:04;22.40;30.00
65195;DHT22;64548;-32.886;-68.826;2022-11-06T11:27:45;22.50;29.70
65195;DHT22;64548;-32.886;-68.826;2022-11-06T11:30:23;22.60;29.90
65195;DHT22;64548;-32.886;-68.826;2022-11-06T11:32:56;22.60;29.80
65195;DHT22;64548;-32.886;-68.826;2022-11-06T11:35:29;21.30;28.20
65195;DHT22;64548;-32.886;-68.826;2022-11-06T11:38:13;22.70;29.40
65195;DHT22;64548;-32.886;-68.826;2022-11-06T11:40:43;22.80;29.60
65195;DHT22;64548;-32.886;-68.826;2022-11-06T11:43:27;22.90;29.70
65195;DHT22;64548;-32.886;-68.826;2022-11-06T11:48:56;23.10;29.70
65195;DHT22;64548;-32.886;-68.826;2022-11-06T11:51:37;23.20;29.80
65195;DHT22;64548;-32.886;-68.826;2022-11-06T12:02:35;23.20;30.00
65195;DHT22;64548;-32.886;-68.826;2022-11-06T12:05:27;23.20;30.30
65195;DHT22;64548;-32.886;-68.826;2022-11-06T12:07:58;23.20;30.50
65195;DHT22;64548;-32.886;-68.826;2022-11-06T12:10:36;23.30;30.60
65195;DHT22;64548;-32.886;-68.826;2022-11-06T12:13:25;23.30;30.40
65195;DHT22;64548;-32.886;-68.826;2022-11-06T12:18:30;23.30;30.80
65195;DHT22;64548;-32.886;-68.826;2022-11-06T12:21:06;23.30;30.70
65195;DHT22;64548;-32.886;-68.826;2022-11-06T12:24:01;23.40;31.00
65195;DHT22;64548;-32.886;-68.826;2022-11-06T12:29:35;23.40;30.80
65195;DHT22;64548;-32.886;-68.826;2022-11-06T12:35:00;23.60;31.20
65195;DHT22;64548;-32.886;-68.826;2022-11-06T12:40:27;23.70;31.20
65195;DHT22;64548;-32.886;-68.826;2022-11-06T12:43:12;23.80;31.50
65195;DHT22;64548;-32.886;-68.826;2022-11-06T12:48:12;24.20;31.10
65195;DHT22;64548;-32.886;-68.826;2022-11-06T12:51:05;24.20;30.90
65195;DHT22;64548;-32.886;-68.826;2022-11-06T12:56:20;21.90;27.90
65195;DHT22;64548;-32.886;-68.826;2022-11-06T13:01:58;24.30;30.70
65195;DHT22;64548;-32.886;-68.826;2022-11-06T13:07:39;24.30;30.60
65195;DHT22;64548;-32.886;-68.826;2022-11-06T13:15:59;24.80;30.60
65195;DHT22;64548;-32.886;-68.826;2022-11-06T13:30:23;25.10;30.50
65195;DHT22;64548;-32.886;-68.826;2022-11-06T13:33:53;25.30;30.70
65195;DHT22;64548;-32.886;-68.826;2022-11-06T13:35:49;24.90;30.20
65195;DHT22;64548;-32.886;-68.826;2022-11-06T13:38:38;24.80;29.80
65195;DHT22;64548;-32.886;-68.826;2022-11-06T13:41:26;25.50;30.00
65195;DHT22;64548;-32.886;-68.826;2022-11-06T13:44:02;26.50;31.90
65195;DHT22;64548;-32.886;-68.826;2022-11-06T13:49:59;25.80;29.90
65195;DHT22;64548;-32.886;-68.826;2022-11-06T13:52:45;25.90;29.50
65195;DHT22;64548;-32.886;-68.826;2022-11-06T13:58:17;26.30;29.80
65195;DHT22;64548;-32.886;-68.826;2022-11-06T14:06:31;26.30;29.80
65195;DHT22;64548;-32.886;-68.826;2022-11-06T14:09:16;26.40;29.60
65195;DHT22;64548;-32.886;-68.826;2022-11-06T14:11:56;26.50;29.60
65195;DHT22;64548;-32.886;-68.826;2022-11-06T14:14:29;26.70;29.60
65195;DHT22;64548;-32.886;-68.826;2022-11-06T14:22:25;26.40;29.60
65195;DHT22;64548;-32.886;-68.826;2022-11-06T14:24:54;26.50;29.50
65195;DHT22;64548;-32.886;-68.826;2022-11-06T14:32:57;26.90;29.40
65195;DHT22;64548;-32.886;-68.826;2022-11-06T14:40:38;27.20;29.00
65195;DHT22;64548;-32.886;-68.826;2022-11-06T14:43:20;27.20;29.00
65195;DHT22;64548;-32.886;-68.826;2022-11-06T14:51:03;27.40;28.40
65195;DHT22;64548;-32.886;-68.826;2022-11-06T14:56:29;27.50;28.90
65195;DHT22;64548;-32.886;-68.826;2022-11-06T14:59:04;27.40;28.80
65195;DHT22;64548;-32.886;-68.826;2022-11-06T15:01:36;27.50;28.90
65195;DHT22;64548;-32.886;-68.826;2022-11-06T15:04:17;27.60;28.60
65195;DHT22;64548;-32.886;-68.826;2022-11-06T15:06:50;27.80;28.40
65195;DHT22;64548;-32.886;-68.826;2022-11-06T15:12:12;27.90;28.20
65195;DHT22;64548;-32.886;-68.826;2022-11-06T15:17:14;28.40;28.30
65195;DHT22;64548;-32.886;-68.826;2022-11-06T15:19:52;28.30;28.60
65195;DHT22;64548;-32.886;-68.826;2022-11-06T15:22:41;28.30;28.10
65195;DHT22;64548;-32.886;-68.826;2022-11-06T15:27:59;28.60;28.10
65195;DHT22;64548;-32.886;-68.826;2022-11-06T15:31:15;28.60;26.90
65195;DHT22;64548;-32.886;-68.826;2022-11-06T15:36:13;28.50;27.00
65195;DHT22;64548;-32.886;-68.826;2022-11-06T15:38:43;28.70;27.00
65195;DHT22;64548;-32.886;-68.826;2022-11-06T15:41:24;28.80;26.60
65195;DHT22;64548;-32.886;-68.826;2022-11-06T15:43:54;29.00;27.20
65195;DHT22;64548;-32.886;-68.826;2022-11-06T15:46:27;29.00;27.00
65195;DHT22;64548;-32.886;-68.826;2022-11-06T15:52:00;29.20;26.90
65195;DHT22;64548;-32.886;-68.826;2022-11-06T15:54:40;29.00;26.60
65195;DHT22;64548;-32.886;-68.826;2022-11-06T15:57:22;29.40;26.80
65195;DHT22;64548;-32.886;-68.826;2022-11-06T16:00:05;29.30;26.60
65195;DHT22;64548;-32.886;-68.826;2022-11-06T16:02:44;29.00;26.40
65195;DHT22;64548;-32.886;-68.826;2022-11-06T16:05:16;27.80;25.20
65195;DHT22;64548;-32.886;-68.826;2022-11-06T16:07:46;29.40;26.70
65195;DHT22;64548;-32.886;-68.826;2022-11-06T16:10:18;29.40;26.90
65195;DHT22;64548;-32.886;-68.826;2022-11-06T16:12:51;29.60;26.70
65195;DHT22;64548;-32.886;-68.826;2022-11-06T16:16:02;29.70;26.20
65195;DHT22;64548;-32.886;-68.826;2022-11-06T16:18:43;29.60;26.50
65195;DHT22;64548;-32.886;-68.826;2022-11-06T16:21:25;29.90;26.50
65195;DHT22;64548;-32.886;-68.826;2022-11-06T16:24:11;30.00;26.00
65195;DHT22;64548;-32.886;-68.826;2022-11-06T16:26:48;30.20;26.30
65195;DHT22;64548;-32.886;-68.826;2022-11-06T16:29:27;30.40;25.90
65195;DHT22;64548;-32.886;-68.826;2022-11-06T16:32:13;30.50;26.10
65195;DHT22;64548;-32.886;-68.826;2022-11-06T16:34:45;30.60;26.30
65195;DHT22;64548;-32.886;-68.826;2022-11-06T16:39:49;30.60;26.20
65195;DHT22;64548;-32.886;-68.826;2022-11-06T16:45:16;30.70;26.20
65195;DHT22;64548;-32.886;-68.826;2022-11-06T16:53:18;30.70;26.00
65195;DHT22;64548;-32.886;-68.826;2022-11-06T16:56:05;30.90;26.20
65195;DHT22;64548;-32.886;-68.826;2022-11-06T16:58:49;29.80;23.90
65195;DHT22;64548;-32.886;-68.826;2022-11-06T17:01:18;30.90;24.90
65195;DHT22;64548;-32.886;-68.826;2022-11-06T17:03:55;30.90;25.10
65195;DHT22;64548;-32.886;-68.826;2022-11-06T17:06:31;30.80;25.60
65195;DHT22;64548;-32.886;-68.826;2022-11-06T17:09:07;30.70;24.80
65195;DHT22;64548;-32.886;-68.826;2022-11-06T17:11:55;31.60;25.50
65195;DHT22;64548;-32.886;-68.826;2022-11-06T17:14:24;30.40;25.10
65195;DHT22;64548;-32.886;-68.826;2022-11-06T17:16:58;29.80;24.40
65195;DHT22;64548;-32.886;-68.826;2022-11-06T17:19:28;33.80;27.50
65195;DHT22;64548;-32.886;-68.826;2022-11-06T17:21:56;31.00;24.80
65195;DHT22;64548;-32.886;-68.826;2022-11-06T17:24:25;31.30;25.30
65195;DHT22;64548;-32.886;-68.826;2022-11-06T17:26:53;31.20;25.50
65195;DHT22;64548;-32.886;-68.826;2022-11-06T17:29:21;31.30;24.70
65195;DHT22;64548;-32.886;-68.826;2022-11-06T17:31:50;31.20;24.50
65195;DHT22;64548;-32.886;-68.826;2022-11-06T17:34:18;31.30;24.60
65195;DHT22;64548;-32.886;-68.826;2022-11-06T17:36:46;31.40;24.80
65195;DHT22;64548;-32.886;-68.826;2022-11-06T17:39:14;30.70;23.30
65195;DHT22;64548;-32.886;-68.826;2022-11-06T17:41:43;31.20;23.60
65195;DHT22;64548;-32.886;-68.826;2022-11-06T17:44:12;31.50;24.00
65195;DHT22;64548;-32.886;-68.826;2022-11-06T17:46:43;31.60;24.70
65195;DHT22;64548;-32.886;-68.826;2022-11-06T17:49:13;31.40;24.70
65195;DHT22;64548;-32.886;-68.826;2022-11-06T17:51:43;31.60;25.00
65195;DHT22;64548;-32.886;-68.826;2022-11-06T17:54:27;30.20;24.00
65195;DHT22;64548;-32.886;-68.826;2022-11-06T17:56:58;31.60;24.90
65195;DHT22;64548;-32.886;-68.826;2022-11-06T17:59:26;31.70;24.70
65195;DHT22;64548;-32.886;-68.826;2022-11-06T18:01:55;31.60;24.70
65195;DHT22;64548;-32.886;-68.826;2022-11-06T18:04:26;31.70;24.70
65195;DHT22;64548;-32.886;-68.826;2022-11-06T18:06:57;31.70;24.00
65195;DHT22;64548;-32.886;-68.826;2022-11-06T18:09:26;31.70;23.80
65195;DHT22;64548;-32.886;-68.826;2022-11-06T18:11:54;31.70;23.80
65195;DHT22;64548;-32.886;-68.826;2022-11-06T18:14:24;33.40;25.80
65195;DHT22;64548;-32.886;-68.826;2022-11-06T18:16:53;31.60;23.50
65195;DHT22;64548;-32.886;-68.826;2022-11-06T18:19:23;31.50;23.20
65195;DHT22;64548;-32.886;-68.826;2022-11-06T18:21:53;31.50;23.60
65195;DHT22;64548;-32.886;-68.826;2022-11-06T18:24:21;31.60;23.20
65195;DHT22;64548;-32.886;-68.826;2022-11-06T18:26:51;31.60;23.20
65195;DHT22;64548;-32.886;-68.826;2022-11-06T18:29:20;31.40;23.00
65195;DHT22;64548;-32.886;-68.826;2022-11-06T18:31:48;31.30;22.90
65195;DHT22;64548;-32.886;-68.826;2022-11-06T18:34:17;31.30;22.90
65195;DHT22;64548;-32.886;-68.826;2022-11-06T18:36:51;31.40;23.00
65195;DHT22;64548;-32.886;-68.826;2022-11-06T18:39:19;31.30;22.90
65195;DHT22;64548;-32.886;-68.826;2022-11-06T18:41:48;31.20;23.30
65195;DHT22;64548;-32.886;-68.826;2022-11-06T18:44:17;31.20;23.60
65195;DHT22;64548;-32.886;-68.826;2022-11-06T18:46:46;31.20;24.10
65195;DHT22;64548;-32.886;-68.826;2022-11-06T18:49:15;31.30;23.80
65195;DHT22;64548;-32.886;-68.826;2022-11-06T18:51:43;31.50;24.60
65195;DHT22;64548;-32.886;-68.826;2022-11-06T18:54:12;31.50;23.20
65195;DHT22;64548;-32.886;-68.826;2022-11-06T18:56:41;31.60;23.80
65195;DHT22;64548;-32.886;-68.826;2022-11-06T18:59:15;31.70;23.30
65195;DHT22;64548;-32.886;-68.826;2022-11-06T19:01:45;31.90;23.50
65195;DHT22;64548;-32.886;-68.826;2022-11-06T19:04:14;31.80;22.80
65195;DHT22;64548;-32.886;-68.826;2022-11-06T19:06:42;32.10;22.40
65195;DHT22;64548;-32.886;-68.826;2022-11-06T19:09:10;32.20;23.70
65195;DHT22;64548;-32.886;-68.826;2022-11-06T19:11:38;32.40;22.30
65195;DHT22;64548;-32.886;-68.826;2022-11-06T19:14:07;32.20;22.10
65195;DHT22;64548;-32.886;-68.826;2022-11-06T19:16:35;31.50;21.30
65195;DHT22;64548;-32.886;-68.826;2022-11-06T19:19:04;32.10;21.90
65195;DHT22;64548;-32.886;-68.826;2022-11-06T19:21:33;31.50;27.30
65195;DHT22;64548;-32.886;-68.826;2022-11-06T19:24:01;31.90;27.40
65195;DHT22;64548;-32.886;-68.826;2022-11-06T19:26:29;32.20;28.80
65195;DHT22;64548;-32.886;-68.826;2022-11-06T19:28:58;33.10;29.50
65195;DHT22;64548;-32.886;-68.826;2022-11-06T19:31:26;32.30;27.50
65195;DHT22;64548;-32.886;-68.826;2022-11-06T19:33:56;32.60;27.80
65195;DHT22;64548;-32.886;-68.826;2022-11-06T19:36:25;32.20;29.10
65195;DHT22;64548;-32.886;-68.826;2022-11-06T19:38:53;32.10;30.10
65195;DHT22;64548;-32.886;-68.826;2022-11-06T19:41:25;33.00;33.80
65195;DHT22;64548;-32.886;-68.826;2022-11-06T19:43:53;32.70;30.40
65195;DHT22;64548;-32.886;-68.826;2022-11-06T19:46:22;31.90;27.50
65195;DHT22;64548;-32.886;-68.826;2022-11-06T19:48:51;31.50;26.40
65195;DHT22;64548;-32.886;-68.826;2022-11-06T19:51:19;31.90;26.00
65195;DHT22;64548;-32.886;-68.826;2022-11-06T19:53:51;32.20;25.60
65195;DHT22;64548;-32.886;-68.826;2022-11-06T19:56:21;31.50;26.10
65195;DHT22;64548;-32.886;-68.826;2022-11-06T19:58:50;31.20;27.90
65195;DHT22;64548;-32.886;-68.826;2022-11-06T20:01:19;31.20;25.10
65195;DHT22;64548;-32.886;-68.826;2022-11-06T20:03:48;31.40;25.00
65195;DHT22;64548;-32.886;-68.826;2022-11-06T20:06:16;32.20;24.90
65195;DHT22;64548;-32.886;-68.826;2022-11-06T20:08:48;31.80;24.30
65195;DHT22;64548;-32.886;-68.826;2022-11-06T20:11:17;32.20;23.70
65195;DHT22;64548;-32.886;-68.826;2022-11-06T20:13:46;32.00;23.60
65195;DHT22;64548;-32.886;-68.826;2022-11-06T20:16:19;31.80;22.80
65195;DHT22;64548;-32.886;-68.826;2022-11-06T20:18:57;30.60;21.60
65195;DHT22;64548;-32.886;-68.826;2022-11-06T20:21:26;30.70;22.00
65195;DHT22;64548;-32.886;-68.826;2022-11-06T20:23:56;32.00;22.60
65195;DHT22;64548;-32.886;-68.826;2022-11-06T20:26:25;31.40;22.00
65195;DHT22;64548;-32.886;-68.826;2022-11-06T20:28:53;30.70;21.80
65195;DHT22;64548;-32.886;-68.826;2022-11-06T20:31:21;32.00;22.90
65195;DHT22;64548;-32.886;-68.826;2022-11-06T20:33:51;32.10;23.30
65195;DHT22;64548;-32.886;-68.826;2022-11-06T20:36:22;31.70;23.20
65195;DHT22;64548;-32.886;-68.826;2022-11-06T20:38:53;31.90;23.90
65195;DHT22;64548;-32.886;-68.826;2022-11-06T20:41:23;32.10;24.00
65195;DHT22;64548;-32.886;-68.826;2022-11-06T20:43:52;31.60;23.70
65195;DHT22;64548;-32.886;-68.826;2022-11-06T20:46:22;31.10;23.30
65195;DHT22;64548;-32.886;-68.826;2022-11-06T20:48:51;31.50;23.40
65195;DHT22;64548;-32.886;-68.826;2022-11-06T20:51:23;31.50;23.60
65195;DHT22;64548;-32.886;-68.826;2022-11-06T20:53:52;31.50;23.60
65195;DHT22;64548;-32.886;-68.826;2022-11-06T20:56:21;31.40;23.70
65195;DHT22;64548;-32.886;-68.826;2022-11-06T20:58:55;31.90;24.10
65195;DHT22;64548;-32.886;-68.826;2022-11-06T21:01:26;31.80;23.30
65195;DHT22;64548;-32.886;-68.826;2022-11-06T21:03:55;31.70;23.00
65195;DHT22;64548;-32.886;-68.826;2022-11-06T21:06:26;31.50;22.50
65195;DHT22;64548;-32.886;-68.826;2022-11-06T21:08:55;31.60;22.40
65195;DHT22;64548;-32.886;-68.826;2022-11-06T21:11:25;31.80;22.10
65195;DHT22;64548;-32.886;-68.826;2022-11-06T21:13:54;32.00;22.00
65195;DHT22;64548;-32.886;-68.826;2022-11-06T21:16:32;31.90;21.80
65195;DHT22;64548;-32.886;-68.826;2022-11-06T21:19:03;31.90;22.00
65195;DHT22;64548;-32.886;-68.826;2022-11-06T21:21:33;32.00;22.20
65195;DHT22;64548;-32.886;-68.826;2022-11-06T21:24:04;32.00;22.20
65195;DHT22;64548;-32.886;-68.826;2022-11-06T21:26:35;32.10;21.90
65195;DHT22;64548;-32.886;-68.826;2022-11-06T21:29:06;32.30;21.70
65195;DHT22;64548;-32.886;-68.826;2022-11-06T21:31:35;32.20;21.60
65195;DHT22;64548;-32.886;-68.826;2022-11-06T21:34:06;32.10;22.00
65195;DHT22;64548;-32.886;-68.826;2022-11-06T21:36:36;32.00;21.90
65195;DHT22;64548;-32.886;-68.826;2022-11-06T21:39:07;32.10;22.00
65195;DHT22;64548;-32.886;-68.826;2022-11-06T21:41:36;31.90;21.60
65195;DHT22;64548;-32.886;-68.826;2022-11-06T21:44:06;32.00;22.10
65195;DHT22;64548;-32.886;-68.826;2022-11-06T21:46:34;30.70;20.90
65195;DHT22;64548;-32.886;-68.826;2022-11-06T21:49:02;31.90;21.90
65195;DHT22;64548;-32.886;-68.826;2022-11-06T21:51:32;31.90;22.00
65195;DHT22;64548;-32.886;-68.826;2022-11-06T21:54:01;31.80;22.20
65195;DHT22;64548;-32.886;-68.826;2022-11-06T21:56:49;32.90;23.00
65195;DHT22;64548;-32.886;-68.826;2022-11-06T21:59:22;31.70;22.20
65195;DHT22;64548;-32.886;-68.826;2022-11-06T22:01:51;31.60;22.40
65195;DHT22;64548;-32.886;-68.826;2022-11-06T22:04:19;31.60;22.40
65195;DHT22;64548;-32.886;-68.826;2022-11-06T22:06:48;31.40;22.60
65195;DHT22;64548;-32.886;-68.826;2022-11-06T22:09:16;32.30;23.50
65195;DHT22;64548;-32.886;-68.826;2022-11-06T22:11:44;31.20;22.40
65195;DHT22;64548;-32.886;-68.826;2022-11-06T22:14:14;31.10;22.70
65195;DHT22;64548;-32.886;-68.826;2022-11-06T22:16:45;31.10;22.60
65195;DHT22;64548;-32.886;-68.826;2022-11-06T22:19:15;31.10;22.70
65195;DHT22;64548;-32.886;-68.826;2022-11-06T22:21:44;31.10;22.80
65195;DHT22;64548;-32.886;-68.826;2022-11-06T22:24:13;31.00;22.70
65195;DHT22;64548;-32.886;-68.826;2022-11-06T22:26:42;30.90;22.60
65195;DHT22;64548;-32.886;-68.826;2022-11-06T22:29:12;30.90;22.60
65195;DHT22;64548;-32.886;-68.826;2022-11-06T22:31:41;30.80;22.50
65195;DHT22;64548;-32.886;-68.826;2022-11-06T22:34:10;30.90;22.90
65195;DHT22;64548;-32.886;-68.826;2022-11-06T22:36:40;30.80;22.90
65195;DHT22;64548;-32.886;-68.826;2022-11-06T22:39:09;30.80;23.20
65195;DHT22;64548;-32.886;-68.826;2022-11-06T22:41:38;30.60;23.20
65195;DHT22;64548;-32.886;-68.826;2022-11-06T22:44:07;30.60;23.40
65195;DHT22;64548;-32.886;-68.826;2022-11-06T22:46:35;30.70;24.10
65195;DHT22;64548;-32.886;-68.826;2022-11-06T22:49:04;30.50;23.70
65195;DHT22;64548;-32.886;-68.826;2022-11-06T22:51:33;30.40;23.90
65195;DHT22;64548;-32.886;-68.826;2022-11-06T22:54:02;30.30;24.10
65195;DHT22;64548;-32.886;-68.826;2022-11-06T22:56:31;30.30;24.00
65195;DHT22;64548;-32.886;-68.826;2022-11-06T22:59:05;30.20;23.90
65195;DHT22;64548;-32.886;-68.826;2022-11-06T23:01:38;30.20;23.90
65195;DHT22;64548;-32.886;-68.826;2022-11-06T23:04:10;30.10;23.90
65195;DHT22;64548;-32.886;-68.826;2022-11-06T23:06:43;30.00;24.30
65195;DHT22;64548;-32.886;-68.826;2022-11-06T23:09:13;29.90;24.20
65195;DHT22;64548;-32.886;-68.826;2022-11-06T23:11:44;29.90;24.60
65195;DHT22;64548;-32.886;-68.826;2022-11-06T23:14:13;29.80;24.40
65195;DHT22;64548;-32.886;-68.826;2022-11-06T23:16:41;29.70;24.90
65195;DHT22;64548;-32.886;-68.826;2022-11-06T23:19:27;29.50;24.80
65195;DHT22;64548;-32.886;-68.826;2022-11-06T23:21:55;29.30;24.90
65195;DHT22;64548;-32.886;-68.826;2022-11-06T23:24:42;29.20;25.20
65195;DHT22;64548;-32.886;-68.826;2022-11-06T23:27:11;29.00;25.20
65195;DHT22;64548;-32.886;-68.826;2022-11-06T23:29:39;28.90;25.50
65195;DHT22;64548;-32.886;-68.826;2022-11-06T23:32:08;28.80;25.40
65195;DHT22;64548;-32.886;-68.826;2022-11-06T23:34:36;28.70;25.70
65195;DHT22;64548;-32.886;-68.826;2022-11-06T23:37:04;28.60;26.10
65195;DHT22;64548;-32.886;-68.826;2022-11-06T23:39:32;28.60;26.00
65195;DHT22;64548;-32.886;-68.826;2022-11-06T23:42:00;28.40;26.10
65195;DHT22;64548;-32.886;-68.826;2022-11-06T23:44:29;28.40;26.30
65195;DHT22;64548;-32.886;-68.826;2022-11-06T23:47:14;28.40;26.70
65195;DHT22;64548;-32.886;-68.826;2022-11-06T23:49:43;28.40;27.40
65195;DHT22;64548;-32.886;-68.826;2022-11-06T23:52:11;28.30;27.50
65195;DHT22;64548;-32.886;-68.826;2022-11-06T23:54:39;28.50;27.70
65195;DHT22;64548;-32.886;-68.826;2022-11-06T23:57:09;28.10;27.80
65195;DHT22;64548;-32.886;-68.826;2022-11-06T23:59:37;28.10;27.80
